Harding, Kansas
Current Conditions -  °F | °C
As of 11:15 PM on Saturday 20 Dec 2014 (Local Time) from KPTS Reporting Station
Overcast Overcast  
Wind Chill: 40°   Ceiling: 2200
Heat Index: 42°   Visibility: 10mi
Dew Point: 38°   Wind: 5mph
Humidity: 85%   Direction: 190°S
Pressure: 30.16"   Gusts: NA
Location:  38.0179°N, 94.8751°W
Report Text: KPTS 210515Z AUTO 19004KT 10SM OVC022 06/03 A3016 RMK AO2 T00580034
Loading
Personal Weather Stations






























Interactive Weather Map New forecast layout! Learn more

10-Day Weather Forecast

Advertisements
Track Severe Weather on mobile